Sylvan Lake, South Dakota
Current Conditions -  °F | °C
As of 6:53 PM on Wednesday 26 Nov 2014 (Local Time) from KCUT Reporting Station
Overcast Overcast  
Wind Chill: -8°   Ceiling: 5500
Heat Index: -4°   Visibility: 10mi
Dew Point: -7°   Wind: 5mph
Humidity: 81%   Direction: 240°WSW
Pressure: 30.16"   Gusts: NA
Location:  43.6653°N, 103.766°W
Report Text: KCUT 270153Z AUTO 24004KT 10SM OVC055 M04/M07 A3016 RMK AO2 SLP264 T10441072
Loading
Personal Weather Stations






























Interactive Weather Map New forecast layout! Learn more

10-Day Weather Forecast

Advertisements
Track Severe Weather on mobile